sensor_id;sensor_type;location;lat;lon;timestamp;temperature;humidity
23520;DHT22;11936;50.820;4.336;2023-04-12T00:00:20;10.90;99.90
23520;DHT22;11936;50.820;4.336;2023-04-12T00:02:45;10.90;99.90
23520;DHT22;11936;50.820;4.336;2023-04-12T00:05:11;11.00;99.90
23520;DHT22;11936;50.820;4.336;2023-04-12T00:07:38;11.00;99.90
23520;DHT22;11936;50.820;4.336;2023-04-12T00:10:06;10.90;99.90
23520;DHT22;11936;50.820;4.336;2023-04-12T00:12:32;10.80;99.90
23520;DHT22;11936;50.820;4.336;2023-04-12T00:14:58;10.70;99.90
23520;DHT22;11936;50.820;4.336;2023-04-12T00:17:23;10.70;99.90
23520;DHT22;11936;50.820;4.336;2023-04-12T00:19:49;10.80;99.90
23520;DHT22;11936;50.820;4.336;2023-04-12T00:22:14;11.00;99.90
23520;DHT22;11936;50.820;4.336;2023-04-12T00:24:40;10.90;99.90
23520;DHT22;11936;50.820;4.336;2023-04-12T00:27:06;11.00;99.90
23520;DHT22;11936;50.820;4.336;2023-04-12T00:29:32;11.10;99.90
23520;DHT22;11936;50.820;4.336;2023-04-12T00:31:59;11.10;99.90
23520;DHT22;11936;50.820;4.336;2023-04-12T00:34:26;11.00;99.90
23520;DHT22;11936;50.820;4.336;2023-04-12T00:36:53;11.00;99.90
23520;DHT22;11936;50.820;4.336;2023-04-12T00:39:18;11.10;99.90
23520;DHT22;11936;50.820;4.336;2023-04-12T00:41:44;11.10;99.90
23520;DHT22;11936;50.820;4.336;2023-04-12T00:44:10;11.00;99.90
23520;DHT22;11936;50.820;4.336;2023-04-12T00:46:35;11.10;99.90
23520;DHT22;11936;50.820;4.336;2023-04-12T00:49:02;11.00;99.90
23520;DHT22;11936;50.820;4.336;2023-04-12T00:51:30;11.10;99.90
23520;DHT22;11936;50.820;4.336;2023-04-12T00:53:58;11.20;99.90
23520;DHT22;11936;50.820;4.336;2023-04-12T00:56:27;11.20;99.90
23520;DHT22;11936;50.820;4.336;2023-04-12T00:58:55;11.20;99.90
23520;DHT22;11936;50.820;4.336;2023-04-12T01:01:21;11.10;99.90
23520;DHT22;11936;50.820;4.336;2023-04-12T01:03:51;11.20;99.90
23520;DHT22;11936;50.820;4.336;2023-04-12T01:09:26;10.60;99.90
23520;DHT22;11936;50.820;4.336;2023-04-12T01:12:04;10.60;99.90
23520;DHT22;11936;50.820;4.336;2023-04-12T01:14:44;10.60;99.90
23520;DHT22;11936;50.820;4.336;2023-04-12T01:17:17;10.70;99.90
23520;DHT22;11936;50.820;4.336;2023-04-12T01:19:55;10.90;99.90
23520;DHT22;11936;50.820;4.336;2023-04-12T01:25:07;11.10;99.90
23520;DHT22;11936;50.820;4.336;2023-04-12T01:27:47;10.90;99.90
23520;DHT22;11936;50.820;4.336;2023-04-12T01:30:16;10.90;99.90
23520;DHT22;11936;50.820;4.336;2023-04-12T01:32:45;10.70;99.90
23520;DHT22;11936;50.820;4.336;2023-04-12T01:35:12;10.80;99.90
23520;DHT22;11936;50.820;4.336;2023-04-12T01:37:40;10.80;99.90
23520;DHT22;11936;50.820;4.336;2023-04-12T01:40:06;10.80;99.90
23520;DHT22;11936;50.820;4.336;2023-04-12T01:42:33;11.00;99.90
23520;DHT22;11936;50.820;4.336;2023-04-12T01:45:00;11.00;99.90
23520;DHT22;11936;50.820;4.336;2023-04-12T01:47:25;11.00;99.90
23520;DHT22;11936;50.820;4.336;2023-04-12T01:55:30;11.10;99.90
23520;DHT22;11936;50.820;4.336;2023-04-12T01:57:57;11.10;99.90
23520;DHT22;11936;50.820;4.336;2023-04-12T02:00:24;11.00;99.90
23520;DHT22;11936;50.820;4.336;2023-04-12T02:02:50;10.90;99.90
23520;DHT22;11936;50.820;4.336;2023-04-12T02:05:16;11.00;99.90
23520;DHT22;11936;50.820;4.336;2023-04-12T02:07:42;10.90;99.90
23520;DHT22;11936;50.820;4.336;2023-04-12T02:10:13;10.90;99.90
23520;DHT22;11936;50.820;4.336;2023-04-12T02:12:39;10.90;99.90
23520;DHT22;11936;50.820;4.336;2023-04-12T02:15:05;10.80;99.90
23520;DHT22;11936;50.820;4.336;2023-04-12T02:17:32;10.90;99.90
23520;DHT22;11936;50.820;4.336;2023-04-12T02:20:00;10.80;99.90
23520;DHT22;11936;50.820;4.336;2023-04-12T02:22:26;10.70;99.90
23520;DHT22;11936;50.820;4.336;2023-04-12T02:24:52;10.80;99.90
23520;DHT22;11936;50.820;4.336;2023-04-12T02:27:17;10.70;99.90
23520;DHT22;11936;50.820;4.336;2023-04-12T02:29:43;10.70;99.90
23520;DHT22;11936;50.820;4.336;2023-04-12T02:32:09;10.60;99.90
23520;DHT22;11936;50.820;4.336;2023-04-12T02:34:35;10.60;99.90
23520;DHT22;11936;50.820;4.336;2023-04-12T02:37:02;10.70;99.90
23520;DHT22;11936;50.820;4.336;2023-04-12T02:39:29;10.80;99.90
23520;DHT22;11936;50.820;4.336;2023-04-12T02:41:56;10.80;99.90
23520;DHT22;11936;50.820;4.336;2023-04-12T02:44:22;10.90;99.90
23520;DHT22;11936;50.820;4.336;2023-04-12T02:46:47;11.00;99.90
23520;DHT22;11936;50.820;4.336;2023-04-12T02:49:13;11.00;99.90
23520;DHT22;11936;50.820;4.336;2023-04-12T02:51:38;10.90;99.90
23520;DHT22;11936;50.820;4.336;2023-04-12T02:54:04;10.90;99.90
23520;DHT22;11936;50.820;4.336;2023-04-12T02:56:30;10.80;99.90
23520;DHT22;11936;50.820;4.336;2023-04-12T02:58:55;10.70;99.90
23520;DHT22;11936;50.820;4.336;2023-04-12T03:01:21;10.70;99.90
23520;DHT22;11936;50.820;4.336;2023-04-12T03:03:47;10.70;99.90
23520;DHT22;11936;50.820;4.336;2023-04-12T03:06:12;10.80;99.90
23520;DHT22;11936;50.820;4.336;2023-04-12T03:08:38;10.80;99.90
23520;DHT22;11936;50.820;4.336;2023-04-12T03:11:04;10.80;99.90
23520;DHT22;11936;50.820;4.336;2023-04-12T03:13:29;10.80;99.90
23520;DHT22;11936;50.820;4.336;2023-04-12T03:15:57;10.80;99.90
23520;DHT22;11936;50.820;4.336;2023-04-12T03:18:23;10.80;99.90
23520;DHT22;11936;50.820;4.336;2023-04-12T03:20:49;10.80;99.90
23520;DHT22;11936;50.820;4.336;2023-04-12T03:23:16;10.80;99.90
23520;DHT22;11936;50.820;4.336;2023-04-12T03:25:42;10.80;99.90
23520;DHT22;11936;50.820;4.336;2023-04-12T03:28:09;10.70;99.90
23520;DHT22;11936;50.820;4.336;2023-04-12T03:30:34;10.80;99.90
23520;DHT22;11936;50.820;4.336;2023-04-12T03:33:00;10.80;99.90
23520;DHT22;11936;50.820;4.336;2023-04-12T03:35:26;10.80;99.90
23520;DHT22;11936;50.820;4.336;2023-04-12T03:37:51;10.70;99.90
23520;DHT22;11936;50.820;4.336;2023-04-12T03:40:17;10.60;99.90
23520;DHT22;11936;50.820;4.336;2023-04-12T03:42:43;10.80;99.90
23520;DHT22;11936;50.820;4.336;2023-04-12T03:45:08;11.00;99.90
23520;DHT22;11936;50.820;4.336;2023-04-12T03:47:34;11.00;99.90
23520;DHT22;11936;50.820;4.336;2023-04-12T03:50:04;11.00;99.90
23520;DHT22;11936;50.820;4.336;2023-04-12T03:52:31;10.90;99.90
23520;DHT22;11936;50.820;4.336;2023-04-12T03:54:57;10.90;99.90
23520;DHT22;11936;50.820;4.336;2023-04-12T03:57:22;10.80;99.90
23520;DHT22;11936;50.820;4.336;2023-04-12T03:59:48;11.00;99.90
23520;DHT22;11936;50.820;4.336;2023-04-12T04:02:14;11.00;99.90
23520;DHT22;11936;50.820;4.336;2023-04-12T04:04:40;10.90;99.90
23520;DHT22;11936;50.820;4.336;2023-04-12T04:07:05;10.90;99.90
23520;DHT22;11936;50.820;4.336;2023-04-12T04:09:32;10.90;99.90
23520;DHT22;11936;50.820;4.336;2023-04-12T04:11:58;11.00;99.90
23520;DHT22;11936;50.820;4.336;2023-04-12T04:14:24;11.20;99.90
23520;DHT22;11936;50.820;4.336;2023-04-12T04:16:50;11.40;99.90
23520;DHT22;11936;50.820;4.336;2023-04-12T04:19:15;11.20;99.90
23520;DHT22;11936;50.820;4.336;2023-04-12T04:21:41;11.30;99.90
23520;DHT22;11936;50.820;4.336;2023-04-12T04:24:08;11.30;99.90
23520;DHT22;11936;50.820;4.336;2023-04-12T04:26:36;11.30;99.90
23520;DHT22;11936;50.820;4.336;2023-04-12T04:29:03;11.20;99.90
23520;DHT22;11936;50.820;4.336;2023-04-12T04:31:30;11.40;99.90
23520;DHT22;11936;50.820;4.336;2023-04-12T04:34:01;11.30;99.90
23520;DHT22;11936;50.820;4.336;2023-04-12T04:36:28;11.20;99.90
23520;DHT22;11936;50.820;4.336;2023-04-12T04:38:55;11.00;99.90
23520;DHT22;11936;50.820;4.336;2023-04-12T04:41:21;10.90;99.90
23520;DHT22;11936;50.820;4.336;2023-04-12T04:43:49;10.80;99.90
23520;DHT22;11936;50.820;4.336;2023-04-12T04:46:15;10.80;99.90
23520;DHT22;11936;50.820;4.336;2023-04-12T04:48:41;10.90;99.90
23520;DHT22;11936;50.820;4.336;2023-04-12T04:51:07;11.00;99.90
23520;DHT22;11936;50.820;4.336;2023-04-12T04:53:33;10.90;99.90
23520;DHT22;11936;50.820;4.336;2023-04-12T04:55:59;10.90;99.90
23520;DHT22;11936;50.820;4.336;2023-04-12T04:58:25;10.90;99.90
23520;DHT22;11936;50.820;4.336;2023-04-12T05:00:51;10.90;99.90
23520;DHT22;11936;50.820;4.336;2023-04-12T05:03:20;10.80;99.90
23520;DHT22;11936;50.820;4.336;2023-04-12T05:05:48;10.80;99.90
23520;DHT22;11936;50.820;4.336;2023-04-12T05:08:13;11.00;99.90
23520;DHT22;11936;50.820;4.336;2023-04-12T05:10:39;11.00;99.90
23520;DHT22;11936;50.820;4.336;2023-04-12T05:13:04;11.00;99.90
23520;DHT22;11936;50.820;4.336;2023-04-12T05:15:33;11.00;99.90
23520;DHT22;11936;50.820;4.336;2023-04-12T05:17:59;11.10;99.90
23520;DHT22;11936;50.820;4.336;2023-04-12T05:20:25;11.10;99.90
23520;DHT22;11936;50.820;4.336;2023-04-12T05:22:50;11.10;99.90
23520;DHT22;11936;50.820;4.336;2023-04-12T05:25:16;11.10;99.90
23520;DHT22;11936;50.820;4.336;2023-04-12T05:27:43;11.00;99.90
23520;DHT22;11936;50.820;4.336;2023-04-12T05:30:08;11.00;99.90
23520;DHT22;11936;50.820;4.336;2023-04-12T05:32:34;11.10;99.90
23520;DHT22;11936;50.820;4.336;2023-04-12T05:35:00;11.20;99.90
23520;DHT22;11936;50.820;4.336;2023-04-12T05:37:26;11.10;99.90
23520;DHT22;11936;50.820;4.336;2023-04-12T05:39:53;11.20;99.90
23520;DHT22;11936;50.820;4.336;2023-04-12T05:42:18;11.20;99.90
23520;DHT22;11936;50.820;4.336;2023-04-12T05:44:44;11.30;99.90
23520;DHT22;11936;50.820;4.336;2023-04-12T05:47:10;11.20;99.90
23520;DHT22;11936;50.820;4.336;2023-04-12T05:49:36;11.10;99.90
23520;DHT22;11936;50.820;4.336;2023-04-12T05:52:02;11.20;99.90
23520;DHT22;11936;50.820;4.336;2023-04-12T05:54:28;11.20;99.90
23520;DHT22;11936;50.820;4.336;2023-04-12T05:56:54;11.30;99.90
23520;DHT22;11936;50.820;4.336;2023-04-12T05:59:19;11.40;99.90
23520;DHT22;11936;50.820;4.336;2023-04-12T06:01:45;11.40;99.90
23520;DHT22;11936;50.820;4.336;2023-04-12T06:04:11;11.40;99.90
23520;DHT22;11936;50.820;4.336;2023-04-12T06:06:36;11.50;99.90
23520;DHT22;11936;50.820;4.336;2023-04-12T06:09:02;11.60;99.90
23520;DHT22;11936;50.820;4.336;2023-04-12T06:11:29;11.50;99.90
23520;DHT22;11936;50.820;4.336;2023-04-12T06:13:58;11.50;99.90
23520;DHT22;11936;50.820;4.336;2023-04-12T06:16:23;11.50;99.90
23520;DHT22;11936;50.820;4.336;2023-04-12T06:18:49;11.50;99.90
23520;DHT22;11936;50.820;4.336;2023-04-12T06:21:15;11.50;99.90
23520;DHT22;11936;50.820;4.336;2023-04-12T06:23:40;11.50;99.90
23520;DHT22;11936;50.820;4.336;2023-04-12T06:26:06;11.30;99.90
23520;DHT22;11936;50.820;4.336;2023-04-12T06:28:31;11.40;99.90
23520;DHT22;11936;50.820;4.336;2023-04-12T06:30:57;11.40;99.90
23520;DHT22;11936;50.820;4.336;2023-04-12T06:33:22;11.30;99.90
23520;DHT22;11936;50.820;4.336;2023-04-12T06:35:48;11.10;99.90
23520;DHT22;11936;50.820;4.336;2023-04-12T06:38:16;11.00;99.90
23520;DHT22;11936;50.820;4.336;2023-04-12T06:40:42;11.10;99.90
23520;DHT22;11936;50.820;4.336;2023-04-12T06:43:08;11.00;99.90
23520;DHT22;11936;50.820;4.336;2023-04-12T06:45:33;11.20;99.90
23520;DHT22;11936;50.820;4.336;2023-04-12T06:47:59;11.20;99.90
23520;DHT22;11936;50.820;4.336;2023-04-12T06:50:25;11.30;99.90
23520;DHT22;11936;50.820;4.336;2023-04-12T06:52:51;11.30;99.90
23520;DHT22;11936;50.820;4.336;2023-04-12T06:55:17;11.30;99.90
23520;DHT22;11936;50.820;4.336;2023-04-12T06:57:43;11.30;99.90
23520;DHT22;11936;50.820;4.336;2023-04-12T07:00:09;11.30;99.90
23520;DHT22;11936;50.820;4.336;2023-04-12T07:02:35;11.20;99.90
23520;DHT22;11936;50.820;4.336;2023-04-12T07:05:01;11.30;99.90
23520;DHT22;11936;50.820;4.336;2023-04-12T07:07:27;11.30;99.90
23520;DHT22;11936;50.820;4.336;2023-04-12T07:09:52;11.20;99.90
23520;DHT22;11936;50.820;4.336;2023-04-12T07:12:18;11.20;99.90
23520;DHT22;11936;50.820;4.336;2023-04-12T07:14:44;11.20;99.90
23520;DHT22;11936;50.820;4.336;2023-04-12T07:17:09;11.20;99.90
23520;DHT22;11936;50.820;4.336;2023-04-12T07:19:35;11.20;99.90
23520;DHT22;11936;50.820;4.336;2023-04-12T07:22:01;11.40;99.90
23520;DHT22;11936;50.820;4.336;2023-04-12T07:24:26;11.30;99.90
23520;DHT22;11936;50.820;4.336;2023-04-12T07:26:53;11.30;99.90
23520;DHT22;11936;50.820;4.336;2023-04-12T07:29:21;11.20;99.90
23520;DHT22;11936;50.820;4.336;2023-04-12T07:31:46;11.30;99.90
23520;DHT22;11936;50.820;4.336;2023-04-12T07:34:12;11.50;99.90
23520;DHT22;11936;50.820;4.336;2023-04-12T07:36:38;11.60;99.90
23520;DHT22;11936;50.820;4.336;2023-04-12T07:39:04;11.60;99.90
23520;DHT22;11936;50.820;4.336;2023-04-12T07:41:30;11.70;99.90
23520;DHT22;11936;50.820;4.336;2023-04-12T07:43:55;11.70;99.90
23520;DHT22;11936;50.820;4.336;2023-04-12T07:46:21;11.80;99.90
23520;DHT22;11936;50.820;4.336;2023-04-12T07:48:47;11.60;99.90
23520;DHT22;11936;50.820;4.336;2023-04-12T07:51:12;11.60;99.90
23520;DHT22;11936;50.820;4.336;2023-04-12T07:53:38;11.60;99.90
23520;DHT22;11936;50.820;4.336;2023-04-12T07:56:06;11.50;99.90
23520;DHT22;11936;50.820;4.336;2023-04-12T07:58:32;11.30;99.90
23520;DHT22;11936;50.820;4.336;2023-04-12T08:00:58;11.50;99.90
23520;DHT22;11936;50.820;4.336;2023-04-12T08:03:23;11.60;99.90
23520;DHT22;11936;50.820;4.336;2023-04-12T08:05:50;11.60;99.90
23520;DHT22;11936;50.820;4.336;2023-04-12T08:08:18;11.80;99.90
23520;DHT22;11936;50.820;4.336;2023-04-12T08:10:46;12.00;99.90
23520;DHT22;11936;50.820;4.336;2023-04-12T08:13:11;11.90;99.90
23520;DHT22;11936;50.820;4.336;2023-04-12T08:15:37;12.00;99.90
23520;DHT22;11936;50.820;4.336;2023-04-12T08:18:03;12.30;99.90
23520;DHT22;11936;50.820;4.336;2023-04-12T08:20:28;12.00;99.90
23520;DHT22;11936;50.820;4.336;2023-04-12T08:22:54;12.00;99.90
23520;DHT22;11936;50.820;4.336;2023-04-12T08:25:20;12.00;99.90
23520;DHT22;11936;50.820;4.336;2023-04-12T08:27:49;12.10;99.90
23520;DHT22;11936;50.820;4.336;2023-04-12T08:30:14;12.20;99.90
23520;DHT22;11936;50.820;4.336;2023-04-12T08:32:40;12.30;99.90
23520;DHT22;11936;50.820;4.336;2023-04-12T08:35:06;12.40;99.90
23520;DHT22;11936;50.820;4.336;2023-04-12T08:37:32;12.40;99.90
23520;DHT22;11936;50.820;4.336;2023-04-12T08:40:00;12.30;99.90
23520;DHT22;11936;50.820;4.336;2023-04-12T08:42:26;12.30;99.90
23520;DHT22;11936;50.820;4.336;2023-04-12T08:44:52;12.40;99.90
23520;DHT22;11936;50.820;4.336;2023-04-12T08:47:18;12.40;99.90
23520;DHT22;11936;50.820;4.336;2023-04-12T08:49:45;12.40;99.90
23520;DHT22;11936;50.820;4.336;2023-04-12T08:52:10;12.30;99.90
23520;DHT22;11936;50.820;4.336;2023-04-12T08:54:36;12.40;99.90
23520;DHT22;11936;50.820;4.336;2023-04-12T08:57:07;12.40;99.90
23520;DHT22;11936;50.820;4.336;2023-04-12T08:59:37;12.30;99.90
23520;DHT22;11936;50.820;4.336;2023-04-12T09:02:03;12.30;99.90
23520;DHT22;11936;50.820;4.336;2023-04-12T09:04:29;12.40;99.90
23520;DHT22;11936;50.820;4.336;2023-04-12T09:06:55;12.40;99.90
23520;DHT22;11936;50.820;4.336;2023-04-12T09:09:48;12.40;99.90
23520;DHT22;11936;50.820;4.336;2023-04-12T09:12:15;12.40;99.90
23520;DHT22;11936;50.820;4.336;2023-04-12T09:14:41;12.60;99.90
23520;DHT22;11936;50.820;4.336;2023-04-12T09:17:25;12.50;99.90
23520;DHT22;11936;50.820;4.336;2023-04-12T09:19:51;12.50;99.90
23520;DHT22;11936;50.820;4.336;2023-04-12T09:22:17;12.50;99.90
23520;DHT22;11936;50.820;4.336;2023-04-12T09:24:48;12.50;99.90
23520;DHT22;11936;50.820;4.336;2023-04-12T09:27:15;12.50;99.90
23520;DHT22;11936;50.820;4.336;2023-04-12T09:29:41;12.70;99.90
23520;DHT22;11936;50.820;4.336;2023-04-12T09:32:07;12.70;99.90
23520;DHT22;11936;50.820;4.336;2023-04-12T09:34:34;12.80;99.90
23520;DHT22;11936;50.820;4.336;2023-04-12T09:37:20;12.70;99.90
23520;DHT22;11936;50.820;4.336;2023-04-12T09:39:46;12.60;99.90
23520;DHT22;11936;50.820;4.336;2023-04-12T09:42:12;12.60;99.90
23520;DHT22;11936;50.820;4.336;2023-04-12T09:44:41;12.50;99.90
23520;DHT22;11936;50.820;4.336;2023-04-12T09:47:06;12.40;99.90
23520;DHT22;11936;50.820;4.336;2023-04-12T09:49:36;12.40;99.90
23520;DHT22;11936;50.820;4.336;2023-04-12T09:52:08;12.30;99.90
23520;DHT22;11936;50.820;4.336;2023-04-12T09:54:43;12.40;99.90
23520;DHT22;11936;50.820;4.336;2023-04-12T09:57:44;12.40;99.90
23520;DHT22;11936;50.820;4.336;2023-04-12T10:00:17;12.40;99.90
23520;DHT22;11936;50.820;4.336;2023-04-12T10:03:17;12.30;99.90
23520;DHT22;11936;50.820;4.336;2023-04-12T10:13:16;12.50;99.90
23520;DHT22;11936;50.820;4.336;2023-04-12T10:15:46;12.40;99.90
23520;DHT22;11936;50.820;4.336;2023-04-12T10:18:17;12.10;99.90
23520;DHT22;11936;50.820;4.336;2023-04-12T10:21:39;12.00;99.90
23520;DHT22;11936;50.820;4.336;2023-04-12T10:27:00;12.30;99.90
23520;DHT22;11936;50.820;4.336;2023-04-12T10:29:47;12.40;99.90
23520;DHT22;11936;50.820;4.336;2023-04-12T10:32:23;12.50;99.90
23520;DHT22;11936;50.820;4.336;2023-04-12T10:38:18;12.80;99.90
23520;DHT22;11936;50.820;4.336;2023-04-12T10:41:13;12.70;99.90
23520;DHT22;11936;50.820;4.336;2023-04-12T10:43:41;12.70;99.90
23520;DHT22;11936;50.820;4.336;2023-04-12T10:46:07;12.60;99.90
23520;DHT22;11936;50.820;4.336;2023-04-12T10:48:37;12.60;99.90
23520;DHT22;11936;50.820;4.336;2023-04-12T10:51:20;12.60;99.90
23520;DHT22;11936;50.820;4.336;2023-04-12T10:56:40;12.40;99.90
23520;DHT22;11936;50.820;4.336;2023-04-12T10:59:11;12.50;99.90
23520;DHT22;11936;50.820;4.336;2023-04-12T11:01:37;12.60;99.90
23520;DHT22;11936;50.820;4.336;2023-04-12T11:04:18;12.80;99.90
23520;DHT22;11936;50.820;4.336;2023-04-12T11:09:45;12.60;99.90
23520;DHT22;11936;50.820;4.336;2023-04-12T11:12:14;12.80;99.90
23520;DHT22;11936;50.820;4.336;2023-04-12T11:14:50;12.80;99.90
23520;DHT22;11936;50.820;4.336;2023-04-12T11:19:49;12.90;99.90
23520;DHT22;11936;50.820;4.336;2023-04-12T11:22:17;12.90;99.90
23520;DHT22;11936;50.820;4.336;2023-04-12T11:24:45;12.80;99.90
23520;DHT22;11936;50.820;4.336;2023-04-12T11:27:12;12.70;99.90
23520;DHT22;11936;50.820;4.336;2023-04-12T11:29:38;12.90;99.90
23520;DHT22;11936;50.820;4.336;2023-04-12T11:32:05;13.00;99.90
23520;DHT22;11936;50.820;4.336;2023-04-12T11:34:35;13.10;99.90
23520;DHT22;11936;50.820;4.336;2023-04-12T11:37:02;13.20;99.90
23520;DHT22;11936;50.820;4.336;2023-04-12T11:39:35;13.10;99.90
23520;DHT22;11936;50.820;4.336;2023-04-12T11:42:03;12.90;99.90
23520;DHT22;11936;50.820;4.336;2023-04-12T11:44:31;12.80;99.90
23520;DHT22;11936;50.820;4.336;2023-04-12T11:46:57;12.50;99.90
23520;DHT22;11936;50.820;4.336;2023-04-12T11:49:23;12.10;99.90
23520;DHT22;11936;50.820;4.336;2023-04-12T11:51:52;11.80;99.90
23520;DHT22;11936;50.820;4.336;2023-04-12T11:54:27;11.50;99.90
23520;DHT22;11936;50.820;4.336;2023-04-12T11:56:59;11.20;99.90
23520;DHT22;11936;50.820;4.336;2023-04-12T11:59:33;10.80;99.90
23520;DHT22;11936;50.820;4.336;2023-04-12T12:02:00;10.70;99.90
23520;DHT22;11936;50.820;4.336;2023-04-12T12:04:29;10.90;99.90
23520;DHT22;11936;50.820;4.336;2023-04-12T12:06:57;11.00;99.90
23520;DHT22;11936;50.820;4.336;2023-04-12T12:09:24;11.30;99.90
23520;DHT22;11936;50.820;4.336;2023-04-12T12:11:50;11.60;99.90
23520;DHT22;11936;50.820;4.336;2023-04-12T12:14:23;11.80;99.90
23520;DHT22;11936;50.820;4.336;2023-04-12T12:16:53;12.00;99.90
23520;DHT22;11936;50.820;4.336;2023-04-12T12:19:34;12.00;99.90
23520;DHT22;11936;50.820;4.336;2023-04-12T12:22:19;12.00;99.90
23520;DHT22;11936;50.820;4.336;2023-04-12T12:24:54;12.00;99.90
23520;DHT22;11936;50.820;4.336;2023-04-12T12:27:22;12.00;99.90
23520;DHT22;11936;50.820;4.336;2023-04-12T12:29:50;11.90;99.90
23520;DHT22;11936;50.820;4.336;2023-04-12T12:32:16;11.90;99.90
23520;DHT22;11936;50.820;4.336;2023-04-12T12:34:53;12.00;99.90
23520;DHT22;11936;50.820;4.336;2023-04-12T12:37:23;12.10;99.90
23520;DHT22;11936;50.820;4.336;2023-04-12T12:40:08;12.00;99.90
23520;DHT22;11936;50.820;4.336;2023-04-12T12:42:45;12.10;99.90
23520;DHT22;11936;50.820;4.336;2023-04-12T12:45:12;12.30;99.90
23520;DHT22;11936;50.820;4.336;2023-04-12T12:50:15;12.70;99.90
23520;DHT22;11936;50.820;4.336;2023-04-12T12:52:43;12.90;99.90
23520;DHT22;11936;50.820;4.336;2023-04-12T12:55:09;13.10;99.90
23520;DHT22;11936;50.820;4.336;2023-04-12T12:57:35;13.00;99.90
23520;DHT22;11936;50.820;4.336;2023-04-12T13:00:01;13.00;99.90
23520;DHT22;11936;50.820;4.336;2023-04-12T13:02:28;13.20;99.90
23520;DHT22;11936;50.820;4.336;2023-04-12T13:04:54;13.10;99.90
23520;DHT22;11936;50.820;4.336;2023-04-12T13:07:24;12.90;99.90
23520;DHT22;11936;50.820;4.336;2023-04-12T13:09:49;13.00;99.90
23520;DHT22;11936;50.820;4.336;2023-04-12T13:12:15;12.80;99.90
23520;DHT22;11936;50.820;4.336;2023-04-12T13:14:41;12.90;99.90
23520;DHT22;11936;50.820;4.336;2023-04-12T13:17:07;12.90;99.90
23520;DHT22;11936;50.820;4.336;2023-04-12T13:19:32;13.00;99.90
23520;DHT22;11936;50.820;4.336;2023-04-12T13:21:58;12.70;99.90
23520;DHT22;11936;50.820;4.336;2023-04-12T13:24:24;12.50;99.90
23520;DHT22;11936;50.820;4.336;2023-04-12T13:26:50;12.30;99.90
23520;DHT22;11936;50.820;4.336;2023-04-12T13:29:16;12.40;99.90
23520;DHT22;11936;50.820;4.336;2023-04-12T13:31:41;12.40;99.90
23520;DHT22;11936;50.820;4.336;2023-04-12T13:34:07;12.50;99.90
23520;DHT22;11936;50.820;4.336;2023-04-12T13:36:32;12.40;99.90
23520;DHT22;11936;50.820;4.336;2023-04-12T13:38:58;12.40;99.90
23520;DHT22;11936;50.820;4.336;2023-04-12T13:41:24;12.40;99.90
23520;DHT22;11936;50.820;4.336;2023-04-12T13:43:50;12.20;99.90
23520;DHT22;11936;50.820;4.336;2023-04-12T13:46:16;12.20;99.90
23520;DHT22;11936;50.820;4.336;2023-04-12T13:48:41;12.00;99.90
23520;DHT22;11936;50.820;4.336;2023-04-12T13:51:08;12.00;99.90
23520;DHT22;11936;50.820;4.336;2023-04-12T13:53:34;11.90;99.90
23520;DHT22;11936;50.820;4.336;2023-04-12T13:56:00;11.90;99.90
23520;DHT22;11936;50.820;4.336;2023-04-12T13:58:26;11.70;99.90
23520;DHT22;11936;50.820;4.336;2023-04-12T14:00:51;11.70;99.90
23520;DHT22;11936;50.820;4.336;2023-04-12T14:03:20;11.50;99.90
23520;DHT22;11936;50.820;4.336;2023-04-12T14:05:46;11.60;99.90
23520;DHT22;11936;50.820;4.336;2023-04-12T14:08:12;11.90;99.90
23520;DHT22;11936;50.820;4.336;2023-04-12T14:10:37;11.90;99.90
23520;DHT22;11936;50.820;4.336;2023-04-12T14:13:03;12.10;99.90
23520;DHT22;11936;50.820;4.336;2023-04-12T14:15:28;12.20;99.90
23520;DHT22;11936;50.820;4.336;2023-04-12T14:17:54;12.00;99.90
23520;DHT22;11936;50.820;4.336;2023-04-12T14:20:20;12.10;99.90
23520;DHT22;11936;50.820;4.336;2023-04-12T14:22:47;12.40;99.90
23520;DHT22;11936;50.820;4.336;2023-04-12T14:25:13;12.60;99.90
23520;DHT22;11936;50.820;4.336;2023-04-12T14:27:38;12.60;99.90
23520;DHT22;11936;50.820;4.336;2023-04-12T14:30:05;12.60;99.90
23520;DHT22;11936;50.820;4.336;2023-04-12T14:32:31;12.40;99.90
23520;DHT22;11936;50.820;4.336;2023-04-12T14:34:57;12.50;99.90
23520;DHT22;11936;50.820;4.336;2023-04-12T14:37:22;12.60;99.90
23520;DHT22;11936;50.820;4.336;2023-04-12T14:39:49;12.70;99.90
23520;DHT22;11936;50.820;4.336;2023-04-12T14:42:14;12.60;99.90
23520;DHT22;11936;50.820;4.336;2023-04-12T14:44:40;12.70;99.90
23520;DHT22;11936;50.820;4.336;2023-04-12T14:47:06;12.60;99.90
23520;DHT22;11936;50.820;4.336;2023-04-12T14:49:31;12.80;99.90
23520;DHT22;11936;50.820;4.336;2023-04-12T14:51:57;12.70;99.90
23520;DHT22;11936;50.820;4.336;2023-04-12T14:54:22;12.60;99.90
23520;DHT22;11936;50.820;4.336;2023-04-12T14:56:48;12.60;99.90
23520;DHT22;11936;50.820;4.336;2023-04-12T14:59:15;12.70;99.90
23520;DHT22;11936;50.820;4.336;2023-04-12T15:01:41;13.00;99.90
23520;DHT22;11936;50.820;4.336;2023-04-12T15:04:07;13.10;99.90
23520;DHT22;11936;50.820;4.336;2023-04-12T15:06:32;13.20;99.90
23520;DHT22;11936;50.820;4.336;2023-04-12T15:09:01;13.50;99.90
23520;DHT22;11936;50.820;4.336;2023-04-12T15:11:29;13.40;99.90
23520;DHT22;11936;50.820;4.336;2023-04-12T15:13:54;13.30;99.90
23520;DHT22;11936;50.820;4.336;2023-04-12T15:16:20;13.40;99.90
23520;DHT22;11936;50.820;4.336;2023-04-12T15:18:46;13.30;99.90
23520;DHT22;11936;50.820;4.336;2023-04-12T15:21:12;13.20;99.90
23520;DHT22;11936;50.820;4.336;2023-04-12T15:23:38;13.20;98.40
23520;DHT22;11936;50.820;4.336;2023-04-12T15:26:08;13.40;99.20
23520;DHT22;11936;50.820;4.336;2023-04-12T15:28:34;13.40;96.60
23520;DHT22;11936;50.820;4.336;2023-04-12T15:31:03;13.40;95.00
23520;DHT22;11936;50.820;4.336;2023-04-12T15:33:29;13.40;95.40
23520;DHT22;11936;50.820;4.336;2023-04-12T15:36:00;13.30;94.50
23520;DHT22;11936;50.820;4.336;2023-04-12T15:38:26;13.30;95.10
23520;DHT22;11936;50.820;4.336;2023-04-12T15:40:56;13.50;94.30
23520;DHT22;11936;50.820;4.336;2023-04-12T15:43:23;13.70;93.80
23520;DHT22;11936;50.820;4.336;2023-04-12T15:45:49;13.70;93.80
23520;DHT22;11936;50.820;4.336;2023-04-12T15:48:18;13.50;94.50
23520;DHT22;11936;50.820;4.336;2023-04-12T15:50:44;13.40;93.20
23520;DHT22;11936;50.820;4.336;2023-04-12T15:53:10;13.20;93.60
23520;DHT22;11936;50.820;4.336;2023-04-12T15:55:36;13.20;94.10
23520;DHT22;11936;50.820;4.336;2023-04-12T15:58:02;13.20;93.80
23520;DHT22;11936;50.820;4.336;2023-04-12T16:00:30;13.40;92.20
23520;DHT22;11936;50.820;4.336;2023-04-12T16:02:55;13.40;92.30
23520;DHT22;11936;50.820;4.336;2023-04-12T16:05:25;13.40;92.20
23520;DHT22;11936;50.820;4.336;2023-04-12T16:07:52;13.40;92.70